createdAt,value
2019-05-14T00:02:03.405Z,8.33
2019-05-14T00:04:32.995Z,8.30
2019-05-14T00:07:02.619Z,8.30
2019-05-14T00:09:32.740Z,8.23
2019-05-14T00:12:02.902Z,8.15
2019-05-14T00:14:39.635Z,8.07
2019-05-14T00:17:04.814Z,7.98
2019-05-14T00:19:34.540Z,7.90
2019-05-14T00:22:04.367Z,7.80
2019-05-14T00:24:34.122Z,7.75
2019-05-14T00:27:04.232Z,7.69
2019-05-14T00:29:33.850Z,7.64
2019-05-14T00:32:03.955Z,7.56
2019-05-14T00:34:33.515Z,7.50
2019-05-14T00:37:03.970Z,7.43
2019-05-14T00:39:33.532Z,7.38
2019-05-14T00:42:03.333Z,7.33
2019-05-14T00:44:32.914Z,7.30
2019-05-14T00:47:02.479Z,7.29
2019-05-14T00:49:32.053Z,7.34
2019-05-14T00:52:02.346Z,7.31
2019-05-14T00:54:32.366Z,7.47
2019-05-14T00:57:01.932Z,7.43
2019-05-14T00:59:32.372Z,7.43
2019-05-14T01:02:02.940Z,7.40
2019-05-14T01:04:32.896Z,7.35
2019-05-14T01:07:02.524Z,7.31
2019-05-14T01:09:32.110Z,7.27
2019-05-14T01:12:01.980Z,7.27
2019-05-14T01:14:31.824Z,7.35
2019-05-14T01:17:01.973Z,7.27
2019-05-14T01:19:31.988Z,7.20
2019-05-14T01:22:01.927Z,7.18
2019-05-14T01:24:32.201Z,7.18
2019-05-14T01:27:01.999Z,7.31
2019-05-14T01:29:31.900Z,7.31
2019-05-14T01:32:01.577Z,7.37
2019-05-14T01:34:32.363Z,7.29
2019-05-14T01:37:02.668Z,7.27
2019-05-14T01:39:32.431Z,7.15
2019-05-14T01:42:02.644Z,7.23
2019-05-14T01:44:32.391Z,7.30
2019-05-14T01:47:02.146Z,7.23
2019-05-14T01:49:31.987Z,7.21
2019-05-14T01:52:01.894Z,7.27
2019-05-14T01:54:31.907Z,7.21
2019-05-14T01:57:02.068Z,7.12
2019-05-14T01:59:32.325Z,7.15
2019-05-14T02:02:02.558Z,7.06
2019-05-14T02:04:32.239Z,7.23
2019-05-14T02:07:02.427Z,7.20
2019-05-14T02:09:32.244Z,7.19
2019-05-14T02:12:02.333Z,7.31
2019-05-14T02:14:32.049Z,7.33
2019-05-14T02:17:02.060Z,7.22
2019-05-14T02:19:31.927Z,7.16
2019-05-14T02:22:02.162Z,7.05
2019-05-14T02:24:32.334Z,7.19
2019-05-14T02:27:02.103Z,7.21
2019-05-14T02:29:32.238Z,7.24
2019-05-14T02:32:01.931Z,7.13
2019-05-14T02:34:31.535Z,7.13
2019-05-14T02:37:01.370Z,6.98
2019-05-14T02:39:31.148Z,6.84
2019-05-14T02:42:00.745Z,7.03
2019-05-14T02:44:30.468Z,7.15
2019-05-14T02:47:00.141Z,7.09
2019-05-14T02:49:30.261Z,6.93
2019-05-14T02:51:59.878Z,6.86
2019-05-14T02:54:29.895Z,6.69
2019-05-14T02:57:00.261Z,6.49
2019-05-14T02:59:30.721Z,6.34
2019-05-14T03:02:00.598Z,6.20
2019-05-14T03:04:30.327Z,6.12
2019-05-14T03:07:00.294Z,6.07
2019-05-14T03:09:30.025Z,5.99
2019-05-14T03:12:00.037Z,6.01
2019-05-14T03:14:30.452Z,5.95
2019-05-14T03:17:00.588Z,5.85
2019-05-14T03:19:30.198Z,5.77
2019-05-14T03:22:00.371Z,5.69
2019-05-14T03:24:30.167Z,5.62
2019-05-14T03:26:59.805Z,5.59
2019-05-14T03:29:30.790Z,5.60
2019-05-14T03:32:03.608Z,5.58
2019-05-14T03:34:33.671Z,5.52
2019-05-14T03:37:04.336Z,5.48
2019-05-14T03:39:34.060Z,5.51
2019-05-14T03:42:03.758Z,5.44
2019-05-14T03:44:33.313Z,5.45
2019-05-14T03:47:05.453Z,5.56
2019-05-14T03:49:34.457Z,5.68
2019-05-14T03:52:04.248Z,5.80
2019-05-14T03:54:33.899Z,5.78
2019-05-14T03:57:03.513Z,5.61
2019-05-14T03:59:33.157Z,5.60
2019-05-14T04:02:03.199Z,5.59
2019-05-14T04:04:32.843Z,5.77
2019-05-14T04:07:04.303Z,5.85
2019-05-14T04:09:34.522Z,5.91
2019-05-14T04:12:09.772Z,5.97
2019-05-14T04:14:40.960Z,6.01
2019-05-14T04:17:15.511Z,5.98
2019-05-14T04:19:45.584Z,6.06
2019-05-14T04:22:15.249Z,6.10
2019-05-14T04:24:49.585Z,5.96
2019-05-14T04:27:22.048Z,6.00
2019-05-14T04:29:53.904Z,6.03
2019-05-14T04:32:23.506Z,6.10
2019-05-14T04:34:53.257Z,6.13
2019-05-14T04:37:22.993Z,6.28
2019-05-14T04:39:52.613Z,6.31
2019-05-14T04:42:22.200Z,6.37
2019-05-14T04:44:51.829Z,6.26
2019-05-14T04:47:31.235Z,6.26
2019-05-14T04:49:52.839Z,6.36
2019-05-14T04:52:22.479Z,6.36
2019-05-14T04:54:52.213Z,6.36
2019-05-14T04:57:25.478Z,6.19
2019-05-14T04:59:53.573Z,6.34
2019-05-14T05:02:23.141Z,6.24
2019-05-14T05:04:52.718Z,6.36
2019-05-14T05:07:22.325Z,6.39
2019-05-14T05:09:51.891Z,6.51
2019-05-14T05:12:21.468Z,6.47
2019-05-14T05:14:51.049Z,6.64
2019-05-14T05:17:20.676Z,6.69
2019-05-14T05:19:51.433Z,6.80
2019-05-14T05:22:21.560Z,6.91
2019-05-14T05:24:51.152Z,6.84
2019-05-14T05:27:20.752Z,6.87
2019-05-14T05:29:50.326Z,6.92
2019-05-14T05:32:19.910Z,6.98
2019-05-14T05:34:49.471Z,6.97
2019-05-14T05:37:19.168Z,7.05
2019-05-14T05:39:49.211Z,6.96
2019-05-14T05:42:19.059Z,7.02
2019-05-14T05:44:48.675Z,6.92
2019-05-14T05:47:18.558Z,6.92
2019-05-14T05:49:48.876Z,6.97
2019-05-14T05:52:19.275Z,7.04
2019-05-14T05:54:49.232Z,7.16
2019-05-14T05:57:18.964Z,7.18
2019-05-14T05:59:48.790Z,7.33
2019-05-14T06:02:18.846Z,7.34
2019-05-14T06:04:50.303Z,7.52
2019-05-14T06:07:19.896Z,7.50
2019-05-14T06:09:49.466Z,7.55
2019-05-14T06:12:19.215Z,7.63
2019-05-14T06:14:49.005Z,7.72
2019-05-14T06:17:19.204Z,7.75
2019-05-14T06:19:48.920Z,7.84
2019-05-14T06:22:19.056Z,7.84
2019-05-14T06:24:48.843Z,7.85
2019-05-14T06:27:18.562Z,8.00
2019-05-14T06:29:48.862Z,8.02
2019-05-14T06:32:18.966Z,8.12
2019-05-14T06:34:49.065Z,8.12
2019-05-14T06:37:19.282Z,8.18
2019-05-14T06:39:48.975Z,8.17
2019-05-14T06:42:19.362Z,8.30
2019-05-14T06:44:49.435Z,8.42
2019-05-14T06:47:19.229Z,8.44
2019-05-14T06:49:49.102Z,8.50
2019-05-14T06:52:18.902Z,8.60
2019-05-14T06:54:49.709Z,8.59
2019-05-14T06:57:19.520Z,8.62
2019-05-14T06:59:49.077Z,8.66
2019-05-14T07:02:19.412Z,8.75
2019-05-14T07:04:49.114Z,8.82
2019-05-14T07:07:20.603Z,8.83
2019-05-14T07:09:49.971Z,8.96
2019-05-14T07:12:19.530Z,9.02
2019-05-14T07:14:49.113Z,9.17
2019-05-14T07:17:19.703Z,9.26
2019-05-14T07:19:49.467Z,9.36
2019-05-14T07:22:19.683Z,9.40
2019-05-14T07:24:50.035Z,9.33
2019-05-14T07:27:19.771Z,9.42
2019-05-14T07:29:49.484Z,9.52
2019-05-14T07:32:19.399Z,9.58
2019-05-14T07:34:49.034Z,9.71
2019-05-14T07:37:18.601Z,9.89
2019-05-14T07:39:48.900Z,9.86
2019-05-14T07:42:18.606Z,9.97
2019-05-14T07:44:48.648Z,10.06
2019-05-14T07:47:18.818Z,10.18
2019-05-14T07:49:49.203Z,10.17
2019-05-14T07:52:19.827Z,10.26
2019-05-14T07:54:49.665Z,10.24
2019-05-14T07:57:19.952Z,10.29
2019-05-14T07:59:49.543Z,10.42
2019-05-14T08:02:19.679Z,10.53
2019-05-14T08:04:49.402Z,10.58
2019-05-14T08:07:18.987Z,10.72
2019-05-14T08:09:50.440Z,10.81
2019-05-14T08:12:20.010Z,10.95
2019-05-14T08:15:02.264Z,11.02
2019-05-14T08:17:20.998Z,11.15
2019-05-14T08:19:50.558Z,11.11
2019-05-14T08:22:20.150Z,11.10
2019-05-14T08:24:49.714Z,11.32
2019-05-14T08:27:19.436Z,11.47
2019-05-14T08:29:49.032Z,11.54
2019-05-14T08:32:19.096Z,11.52
2019-05-14T08:34:48.787Z,11.62
2019-05-14T08:37:20.495Z,11.73
2019-05-14T08:39:50.340Z,11.73
2019-05-14T08:42:19.948Z,11.76
2019-05-14T08:44:51.395Z,11.78
2019-05-14T08:47:20.999Z,11.83
2019-05-14T08:49:51.087Z,11.96
2019-05-14T08:52:20.735Z,12.18
2019-05-14T08:55:05.395Z,12.28
2019-05-14T08:57:21.717Z,12.27
2019-05-14T08:59:51.331Z,12.22
2019-05-14T09:02:20.952Z,12.28
2019-05-14T09:04:54.163Z,12.47
2019-05-14T09:07:21.836Z,12.54
2019-05-14T09:09:52.729Z,12.73
2019-05-14T09:12:22.308Z,12.68
2019-05-14T09:14:51.890Z,12.79
2019-05-14T09:17:21.457Z,12.90
2019-05-14T09:20:02.068Z,12.98
2019-05-14T09:22:22.333Z,13.12
2019-05-14T09:24:51.936Z,13.23
2019-05-14T09:27:21.520Z,13.30
2019-05-14T09:29:51.105Z,13.30
2019-05-14T09:32:20.738Z,13.33
2019-05-14T09:34:50.314Z,13.57
2019-05-14T09:37:20.018Z,13.90
2019-05-14T09:39:49.573Z,14.13
2019-05-14T09:42:20.030Z,14.12
2019-05-14T09:44:49.602Z,14.16
2019-05-14T09:47:19.231Z,13.93
2019-05-14T09:49:49.230Z,13.92
2019-05-14T09:52:19.132Z,14.01
2019-05-14T09:54:49.621Z,14.06
2019-05-14T09:57:19.368Z,14.23
2019-05-14T09:59:48.919Z,14.60
2019-05-14T10:02:18.519Z,14.73
2019-05-14T10:04:49.000Z,14.74
2019-05-14T10:07:18.743Z,14.57
2019-05-14T10:09:49.199Z,14.72
2019-05-14T10:12:18.881Z,14.71
2019-05-14T10:14:48.788Z,14.60
2019-05-14T10:17:19.431Z,14.77
2019-05-14T10:19:50.001Z,15.08
2019-05-14T10:22:20.045Z,15.25
2019-05-14T10:24:49.612Z,15.65
2019-05-14T10:27:19.191Z,16.01
2019-05-14T10:29:48.751Z,16.11
2019-05-14T10:32:18.806Z,16.09
2019-05-14T10:34:48.722Z,16.03
2019-05-14T10:37:19.255Z,16.44
2019-05-14T10:39:49.091Z,16.84
2019-05-14T10:42:20.169Z,17.14
2019-05-14T10:44:50.055Z,16.98
2019-05-14T10:47:19.625Z,16.37
2019-05-14T10:49:49.187Z,16.54
2019-05-14T10:52:19.736Z,15.94
2019-05-14T10:54:56.069Z,15.95
2019-05-14T10:57:20.869Z,15.79
2019-05-14T10:59:50.429Z,15.87
2019-05-14T11:02:20.004Z,16.15
2019-05-14T11:04:49.587Z,16.34
2019-05-14T11:07:19.160Z,16.66
2019-05-14T11:09:48.959Z,16.69
2019-05-14T11:12:19.223Z,16.94
2019-05-14T11:14:49.488Z,16.69
2019-05-14T11:17:19.603Z,16.56
2019-05-14T11:19:49.489Z,16.35
2019-05-14T11:22:19.133Z,16.32
2019-05-14T11:24:49.296Z,16.81
2019-05-14T11:27:18.973Z,17.20
2019-05-14T11:29:49.226Z,17.17
2019-05-14T11:32:19.061Z,17.15
2019-05-14T11:34:48.713Z,17.39
2019-05-14T11:37:18.817Z,17.32
2019-05-14T11:39:48.834Z,17.46
2019-05-14T11:42:19.835Z,16.98
2019-05-14T11:44:49.650Z,16.92
2019-05-14T11:47:19.387Z,16.78
2019-05-14T11:49:49.412Z,16.52
2019-05-14T11:52:19.066Z,16.73
2019-05-14T11:54:49.356Z,17.24
2019-05-14T11:57:19.454Z,17.73
2019-05-14T11:59:49.235Z,18.11
2019-05-14T12:02:19.122Z,17.72
2019-05-14T12:04:48.823Z,17.99
2019-05-14T12:07:18.842Z,18.09
2019-05-14T12:09:48.576Z,17.85
2019-05-14T12:12:18.990Z,17.85
2019-05-14T12:14:48.772Z,17.23
2019-05-14T12:17:18.422Z,17.63
2019-05-14T12:19:48.595Z,18.11
2019-05-14T12:22:19.055Z,18.64
2019-05-14T12:24:49.397Z,18.59
2019-05-14T12:27:19.419Z,18.79
2019-05-14T12:29:50.105Z,19.17
2019-05-14T12:32:19.914Z,19.09
2019-05-14T12:34:49.702Z,19.40
2019-05-14T12:37:19.499Z,19.40
2019-05-14T12:39:49.083Z,18.88
2019-05-14T12:42:19.392Z,19.06
2019-05-14T12:44:49.133Z,18.84
2019-05-14T12:47:18.998Z,18.84
2019-05-14T12:49:48.584Z,18.79
2019-05-14T12:52:25.578Z,18.89
2019-05-14T12:54:50.243Z,18.82
2019-05-14T12:57:20.030Z,18.60
2019-05-14T12:59:49.634Z,18.60
2019-05-14T13:02:19.303Z,18.41
2019-05-14T13:04:48.943Z,18.21
2019-05-14T13:07:19.271Z,18.92
2019-05-14T13:09:49.186Z,19.42
2019-05-14T13:12:19.085Z,19.06
2019-05-14T13:14:49.058Z,18.64
2019-05-14T13:17:18.943Z,17.99
2019-05-14T13:19:48.876Z,17.48
2019-05-14T13:22:30.290Z,17.72
2019-05-14T13:24:49.970Z,18.23
2019-05-14T13:27:19.619Z,18.66
2019-05-14T13:29:49.365Z,18.74
2019-05-14T13:32:19.723Z,18.28
2019-05-14T13:34:49.338Z,18.82
2019-05-14T13:37:18.936Z,19.10
2019-05-14T13:39:52.901Z,19.55
2019-05-14T13:42:19.906Z,19.46
2019-05-14T13:44:49.488Z,19.14
2019-05-14T13:47:19.052Z,19.13
2019-05-14T13:49:48.988Z,19.34
2019-05-14T13:52:18.897Z,20.12
2019-05-14T13:54:48.654Z,20.27
2019-05-14T13:57:19.417Z,20.21
2019-05-14T13:59:49.543Z,19.74
2019-05-14T14:02:19.295Z,19.36
2019-05-14T14:04:48.897Z,19.55
2019-05-14T14:07:19.078Z,19.81
2019-05-14T14:09:49.852Z,19.55
2019-05-14T14:12:19.792Z,19.62
2019-05-14T14:14:49.553Z,20.15
2019-05-14T14:17:19.498Z,20.18
2019-05-14T14:19:49.153Z,20.63
2019-05-14T14:22:19.522Z,20.53
2019-05-14T14:24:49.384Z,20.47
2019-05-14T14:27:19.737Z,19.64
2019-05-14T14:29:49.602Z,18.69
2019-05-14T14:32:19.217Z,18.70
2019-05-14T14:34:48.978Z,18.89
2019-05-14T14:37:19.286Z,18.92
2019-05-14T14:39:49.197Z,19.22
2019-05-14T14:42:19.557Z,19.47
2019-05-14T14:44:49.360Z,19.99
2019-05-14T14:47:19.187Z,20.09
2019-05-14T14:49:51.964Z,19.78
2019-05-14T14:52:20.239Z,19.41
2019-05-14T14:54:50.408Z,19.32
2019-05-14T14:57:20.274Z,18.92
2019-05-14T14:59:49.924Z,18.56
2019-05-14T15:02:19.972Z,18.32
2019-05-14T15:04:50.326Z,19.23
2019-05-14T15:07:19.985Z,19.96
2019-05-14T15:09:49.559Z,19.80
2019-05-14T15:12:20.023Z,19.68
2019-05-14T15:14:49.794Z,19.48
2019-05-14T15:17:19.379Z,19.66
2019-05-14T15:19:49.963Z,19.57
2019-05-14T15:22:20.577Z,19.91
2019-05-14T15:24:50.878Z,19.98
2019-05-14T15:27:20.450Z,20.16
2019-05-14T15:29:50.015Z,20.27
2019-05-14T15:32:19.922Z,20.22
2019-05-14T15:34:50.563Z,20.22
2019-05-14T15:37:20.352Z,20.42
2019-05-14T15:39:49.906Z,20.14
2019-05-14T15:42:19.532Z,20.37
2019-05-14T15:44:55.774Z,20.48
2019-05-14T15:47:20.393Z,20.76
2019-05-14T15:49:49.992Z,21.01
2019-05-14T15:52:19.592Z,20.62
2019-05-14T15:54:50.579Z,20.61
2019-05-14T15:57:20.502Z,20.57
2019-05-14T15:59:50.169Z,20.49
2019-05-14T16:02:20.212Z,20.51
2019-05-14T16:04:49.913Z,20.14
2019-05-14T16:07:19.501Z,20.14
2019-05-14T16:09:49.557Z,20.37
2019-05-14T16:12:19.835Z,20.24
2019-05-14T16:14:49.898Z,20.25
2019-05-14T16:17:24.868Z,20.24
2019-05-14T16:19:50.855Z,19.46
2019-05-14T16:22:20.680Z,19.57
2019-05-14T16:24:56.274Z,19.83
2019-05-14T16:27:21.773Z,20.14
2019-05-14T16:29:51.335Z,20.18
2019-05-14T16:32:20.915Z,20.17
2019-05-14T16:34:50.485Z,20.59
2019-05-14T16:37:20.145Z,20.64
2019-05-14T16:39:49.747Z,20.64
2019-05-14T16:42:20.683Z,20.70
2019-05-14T16:44:50.550Z,20.59
2019-05-14T16:47:20.128Z,20.06
2019-05-14T16:49:49.866Z,20.30
2019-05-14T16:52:19.450Z,20.59
2019-05-14T16:54:49.115Z,20.96
2019-05-14T16:57:18.799Z,20.95
2019-05-14T16:59:49.655Z,21.01
2019-05-14T17:02:19.647Z,20.68
2019-05-14T17:04:49.291Z,20.88
2019-05-14T17:07:18.905Z,20.56
2019-05-14T17:09:49.303Z,20.22
2019-05-14T17:12:22.838Z,19.75
2019-05-14T17:14:52.983Z,19.46
2019-05-14T17:17:22.755Z,19.50
2019-05-14T17:19:52.464Z,19.28
2019-05-14T17:22:29.172Z,19.13
2019-05-14T17:24:53.425Z,19.06
2019-05-14T17:27:22.989Z,18.63
2019-05-14T17:29:52.692Z,18.27
2019-05-14T17:32:22.352Z,18.25
2019-05-14T17:34:52.092Z,17.95
2019-05-14T17:37:21.686Z,17.69
2019-05-14T17:39:51.326Z,17.45
2019-05-14T17:42:20.903Z,17.44
2019-05-14T17:44:50.504Z,17.18
2019-05-14T17:47:20.094Z,17.41
2019-05-14T17:49:49.665Z,17.49
2019-05-14T17:52:21.772Z,17.50
2019-05-14T17:54:50.671Z,17.51
2019-05-14T17:57:25.393Z,17.14
2019-05-14T17:59:54.241Z,16.93
2019-05-14T18:02:23.845Z,16.58
2019-05-14T18:04:56.452Z,16.52
2019-05-14T18:07:28.444Z,16.43
2019-05-14T18:09:58.868Z,16.18
2019-05-14T18:12:30.449Z,16.08
2019-05-14T18:14:59.988Z,16.07
2019-05-14T18:17:29.752Z,16.00
2019-05-14T18:19:59.319Z,16.00
2019-05-14T18:22:28.924Z,15.85
2019-05-14T18:24:59.243Z,15.67
2019-05-14T18:27:29.463Z,15.63
2019-05-14T18:29:59.431Z,15.61
2019-05-14T18:32:29.188Z,15.63
2019-05-14T18:34:58.779Z,15.65
2019-05-14T18:37:28.958Z,15.64
2019-05-14T18:39:58.793Z,15.48
2019-05-14T18:42:29.718Z,15.48
2019-05-14T18:44:59.426Z,15.37
2019-05-14T18:47:29.245Z,15.27
2019-05-14T18:49:59.527Z,15.19
2019-05-14T18:52:29.805Z,15.07
2019-05-14T18:54:59.475Z,15.01
2019-05-14T18:57:29.148Z,14.95
2019-05-14T18:59:58.727Z,14.97
2019-05-14T19:02:29.348Z,14.89
2019-05-14T19:04:58.992Z,14.72
2019-05-14T19:07:28.922Z,14.72
2019-05-14T19:09:58.830Z,14.51
2019-05-14T19:12:29.055Z,14.46
2019-05-14T19:14:59.171Z,14.44
2019-05-14T19:17:29.036Z,14.39
2019-05-14T19:19:59.026Z,14.38
2019-05-14T19:22:28.765Z,14.29
2019-05-14T19:24:58.830Z,14.16
2019-05-14T19:27:28.766Z,14.16
2019-05-14T19:29:59.520Z,14.03
2019-05-14T19:32:29.768Z,13.95
2019-05-14T19:34:59.358Z,13.77
2019-05-14T19:37:29.171Z,13.76
2019-05-14T19:39:58.832Z,13.72
2019-05-14T19:42:28.832Z,13.65
2019-05-14T19:44:59.775Z,13.64
2019-05-14T19:47:29.763Z,13.60
2019-05-14T19:49:59.433Z,13.51
2019-05-14T19:52:29.165Z,13.43
2019-05-14T19:54:58.795Z,13.54
2019-05-14T19:57:29.104Z,13.53
2019-05-14T19:59:58.729Z,13.57
2019-05-14T20:02:28.735Z,13.48
2019-05-14T20:04:58.937Z,13.36
2019-05-14T20:07:28.555Z,13.20
2019-05-14T20:09:58.777Z,13.11
2019-05-14T20:12:28.817Z,13.15
2019-05-14T20:14:58.468Z,13.02
2019-05-14T20:17:28.376Z,12.88
2019-05-14T20:19:58.045Z,12.75
2019-05-14T20:22:28.418Z,12.73
2019-05-14T20:24:58.963Z,12.70
2019-05-14T20:27:28.626Z,12.60
2019-05-14T20:29:58.183Z,12.54
2019-05-14T20:32:27.769Z,12.44
2019-05-14T20:34:58.013Z,12.51
2019-05-14T20:37:29.146Z,12.42
2019-05-14T20:39:59.144Z,12.34
2019-05-14T20:42:29.055Z,12.29
2019-05-14T20:44:58.556Z,12.13
2019-05-14T20:47:28.267Z,12.14
2019-05-14T20:49:58.039Z,12.10
2019-05-14T20:52:28.438Z,12.08
2019-05-14T20:54:58.387Z,12.06
2019-05-14T20:57:32.961Z,12.06
2019-05-14T20:59:59.319Z,11.95
2019-05-14T21:02:29.522Z,11.93
2019-05-14T21:05:04.521Z,11.79
2019-05-14T21:07:30.813Z,11.81
2019-05-14T21:10:00.377Z,11.77
2019-05-14T21:12:29.956Z,11.81
2019-05-14T21:14:59.554Z,11.68
2019-05-14T21:17:29.355Z,11.68
2019-05-14T21:19:58.917Z,11.61
2019-05-14T21:22:29.248Z,11.66
2019-05-14T21:24:58.853Z,11.56
2019-05-14T21:27:40.845Z,11.49
2019-05-14T21:29:59.708Z,11.56
2019-05-14T21:32:29.367Z,11.31
2019-05-14T21:34:58.942Z,11.29
2019-05-14T21:37:28.617Z,11.14
2019-05-14T21:39:58.377Z,11.08
2019-05-14T21:42:28.568Z,10.94
2019-05-14T21:44:58.547Z,10.73
2019-05-14T21:47:28.565Z,10.59
2019-05-14T21:49:58.464Z,10.52
2019-05-14T21:52:29.003Z,10.49
2019-05-14T21:54:58.735Z,10.40
2019-05-14T21:57:28.482Z,10.19
2019-05-14T21:59:58.825Z,10.21
2019-05-14T22:02:30.577Z,10.29
2019-05-14T22:05:01.533Z,10.08
2019-05-14T22:07:31.406Z,9.96
2019-05-14T22:10:01.403Z,9.88
2019-05-14T22:12:31.042Z,9.90
2019-05-14T22:15:00.623Z,9.86
2019-05-14T22:17:30.202Z,9.74
2019-05-14T22:19:59.777Z,9.57
2019-05-14T22:22:30.816Z,9.71
2019-05-14T22:25:00.577Z,9.56
2019-05-14T22:27:30.198Z,9.44
2019-05-14T22:29:59.807Z,9.38
2019-05-14T22:32:29.541Z,9.37
2019-05-14T22:34:59.104Z,9.59
2019-05-14T22:37:28.944Z,9.37
2019-05-14T22:39:59.001Z,9.24
2019-05-14T22:42:28.758Z,9.15
2019-05-14T22:44:58.492Z,9.07
2019-05-14T22:47:28.048Z,9.11
2019-05-14T22:49:59.132Z,9.13
2019-05-14T22:52:31.290Z,9.10
2019-05-14T22:55:00.262Z,9.15
2019-05-14T22:57:31.073Z,9.02
2019-05-14T23:00:00.675Z,8.87
2019-05-14T23:02:30.313Z,8.88
2019-05-14T23:04:59.895Z,8.98
2019-05-14T23:07:29.467Z,8.98
2019-05-14T23:09:59.193Z,8.89
2019-05-14T23:12:28.825Z,8.70
2019-05-14T23:14:58.368Z,8.59
2019-05-14T23:17:28.144Z,8.50
2019-05-14T23:19:58.111Z,8.55
2019-05-14T23:22:29.675Z,8.70
2019-05-14T23:24:59.554Z,8.78
2019-05-14T23:27:29.529Z,8.60
2019-05-14T23:29:59.041Z,8.56
2019-05-14T23:32:28.801Z,8.49
2019-05-14T23:34:58.578Z,8.31
2019-05-14T23:37:29.151Z,8.35
2019-05-14T23:39:59.698Z,8.21
2019-05-14T23:42:29.316Z,8.22
2019-05-14T23:44:58.897Z,8.09
2019-05-14T23:47:28.917Z,8.02
2019-05-14T23:49:58.594Z,7.98
2019-05-14T23:52:29.291Z,8.04
2019-05-14T23:54:59.015Z,8.05
2019-05-14T23:57:28.974Z,8.00
2019-05-14T23:59:58.827Z,7.93
